sensor_id;sensor_type;location;lat;lon;timestamp;P1;durP1;ratioP1;P2;durP2;ratioP2
12721;SDS011;6425;50.316;8.114;2023-03-12T00:00:00;11.6;;;6.1;;
12721;SDS011;6425;50.316;8.114;2023-03-12T00:03:00;11.6;;;6.1;;
12721;SDS011;6425;50.316;8.114;2023-03-12T00:06:01;13.9;;;7.5;;
12721;SDS011;6425;50.316;8.114;2023-03-12T00:09:00;13.9;;;7.5;;
12721;SDS011;6425;50.316;8.114;2023-03-12T00:12:00;12;;;7.9;;
12721;SDS011;6425;50.316;8.114;2023-03-12T00:15:00;13.2;;;7.2;;
12721;SDS011;6425;50.316;8.114;2023-03-12T00:18:00;13.2;;;7.2;;
12721;SDS011;6425;50.316;8.114;2023-03-12T00:21:00;11.7;;;7;;
12721;SDS011;6425;50.316;8.114;2023-03-12T00:24:00;11.7;;;7;;
12721;SDS011;6425;50.316;8.114;2023-03-12T00:27:00;16.8;;;8.7;;
12721;SDS011;6425;50.316;8.114;2023-03-12T00:30:00;11.6;;;5.8;;
12721;SDS011;6425;50.316;8.114;2023-03-12T00:33:00;11.6;;;5.8;;
12721;SDS011;6425;50.316;8.114;2023-03-12T00:36:00;5.9;;;5.1;;
12721;SDS011;6425;50.316;8.114;2023-03-12T00:39:00;5.9;;;5.1;;
12721;SDS011;6425;50.316;8.114;2023-03-12T00:42:00;7.3;;;6.2;;
12721;SDS011;6425;50.316;8.114;2023-03-12T00:45:00;9.6;;;6.3;;
12721;SDS011;6425;50.316;8.114;2023-03-12T00:48:00;9.6;;;6.3;;
12721;SDS011;6425;50.316;8.114;2023-03-12T00:51:00;9.1;;;6.6;;
12721;SDS011;6425;50.316;8.114;2023-03-12T00:54:00;9.1;;;6.6;;
12721;SDS011;6425;50.316;8.114;2023-03-12T00:57:00;11.4;;;7.2;;
12721;SDS011;6425;50.316;8.114;2023-03-12T01:00:00;8.3;;;6;;
12721;SDS011;6425;50.316;8.114;2023-03-12T01:03:00;8.3;;;6;;
12721;SDS011;6425;50.316;8.114;2023-03-12T01:06:00;7.6;;;5.9;;
12721;SDS011;6425;50.316;8.114;2023-03-12T01:09:00;8.3;;;6.4;;
12721;SDS011;6425;50.316;8.114;2023-03-12T01:12:00;8.3;;;6.4;;
12721;SDS011;6425;50.316;8.114;2023-03-12T01:15:00;25.8;;;11.3;;
12721;SDS011;6425;50.316;8.114;2023-03-12T01:18:00;25.8;;;11.3;;
12721;SDS011;6425;50.316;8.114;2023-03-12T01:21:00;12;;;7.8;;
12721;SDS011;6425;50.316;8.114;2023-03-12T01:24:00;10.6;;;7.7;;
12721;SDS011;6425;50.316;8.114;2023-03-12T01:27:00;10.6;;;7.7;;
12721;SDS011;6425;50.316;8.114;2023-03-12T01:30:00;9.6;;;7.1;;
12721;SDS011;6425;50.316;8.114;2023-03-12T01:33:00;9.6;;;7.1;;
12721;SDS011;6425;50.316;8.114;2023-03-12T01:36:00;16.9;;;7.8;;
12721;SDS011;6425;50.316;8.114;2023-03-12T01:39:00;12.9;;;6.6;;
12721;SDS011;6425;50.316;8.114;2023-03-12T01:42:00;12.9;;;6.6;;
12721;SDS011;6425;50.316;8.114;2023-03-12T01:45:01;9;;;6;;
12721;SDS011;6425;50.316;8.114;2023-03-12T01:48:00;9;;;6;;
12721;SDS011;6425;50.316;8.114;2023-03-12T01:51:00;9.6;;;6.8;;
12721;SDS011;6425;50.316;8.114;2023-03-12T01:54:01;16;;;8.8;;
12721;SDS011;6425;50.316;8.114;2023-03-12T01:57:00;16;;;8.8;;
12721;SDS011;6425;50.316;8.114;2023-03-12T02:00:00;15.3;;;6.9;;
12721;SDS011;6425;50.316;8.114;2023-03-12T02:03:01;15.3;;;6.9;;
12721;SDS011;6425;50.316;8.114;2023-03-12T02:06:01;9.7;;;6.8;;
12721;SDS011;6425;50.316;8.114;2023-03-12T02:09:00;8;;;6.4;;
12721;SDS011;6425;50.316;8.114;2023-03-12T02:12:00;8;;;6.4;;
12721;SDS011;6425;50.316;8.114;2023-03-12T02:15:00;11.8;;;7.9;;
12721;SDS011;6425;50.316;8.114;2023-03-12T02:18:01;11.8;;;7.9;;
12721;SDS011;6425;50.316;8.114;2023-03-12T02:21:01;11.6;;;7.6;;
12721;SDS011;6425;50.316;8.114;2023-03-12T02:24:01;8.5;;;6.7;;
12721;SDS011;6425;50.316;8.114;2023-03-12T02:27:00;8.5;;;6.7;;
12721;SDS011;6425;50.316;8.114;2023-03-12T02:30:00;10;;;7.7;;
12721;SDS011;6425;50.316;8.114;2023-03-12T02:33:00;10;;;7.7;;
12721;SDS011;6425;50.316;8.114;2023-03-12T02:36:00;8.2;;;7.4;;
12721;SDS011;6425;50.316;8.114;2023-03-12T02:39:00;10.8;;;7.6;;
12721;SDS011;6425;50.316;8.114;2023-03-12T02:42:00;10.8;;;7.6;;
12721;SDS011;6425;50.316;8.114;2023-03-12T02:45:00;9.6;;;6.7;;
12721;SDS011;6425;50.316;8.114;2023-03-12T02:48:00;9.6;;;6.7;;
12721;SDS011;6425;50.316;8.114;2023-03-12T02:51:00;7.2;;;6.5;;
12721;SDS011;6425;50.316;8.114;2023-03-12T02:54:00;9.5;;;7;;
12721;SDS011;6425;50.316;8.114;2023-03-12T02:57:00;9.5;;;7;;
12721;SDS011;6425;50.316;8.114;2023-03-12T03:00:00;8.2;;;6.4;;
12721;SDS011;6425;50.316;8.114;2023-03-12T03:03:00;8.2;;;6.4;;
12721;SDS011;6425;50.316;8.114;2023-03-12T03:06:00;8.2;;;6;;
12721;SDS011;6425;50.316;8.114;2023-03-12T03:09:00;6.6;;;5.2;;
12721;SDS011;6425;50.316;8.114;2023-03-12T03:12:00;6.6;;;5.2;;
12721;SDS011;6425;50.316;8.114;2023-03-12T03:15:00;6.2;;;5.3;;
12721;SDS011;6425;50.316;8.114;2023-03-12T03:18:00;6.2;;;5.3;;
12721;SDS011;6425;50.316;8.114;2023-03-12T03:21:00;7;;;5.2;;
12721;SDS011;6425;50.316;8.114;2023-03-12T03:24:00;8.1;;;4.7;;
12721;SDS011;6425;50.316;8.114;2023-03-12T03:27:00;8.1;;;4.7;;
12721;SDS011;6425;50.316;8.114;2023-03-12T03:30:00;10.8;;;5.9;;
12721;SDS011;6425;50.316;8.114;2023-03-12T03:33:00;8.2;;;5.5;;
12721;SDS011;6425;50.316;8.114;2023-03-12T03:36:00;8.2;;;5.5;;
12721;SDS011;6425;50.316;8.114;2023-03-12T03:39:00;12.1;;;5.8;;
12721;SDS011;6425;50.316;8.114;2023-03-12T03:42:00;12.1;;;5.8;;
12721;SDS011;6425;50.316;8.114;2023-03-12T03:45:00;13;;;7.5;;
12721;SDS011;6425;50.316;8.114;2023-03-12T03:48:00;9.3;;;5.7;;
12721;SDS011;6425;50.316;8.114;2023-03-12T03:51:00;9.3;;;5.7;;
12721;SDS011;6425;50.316;8.114;2023-03-12T03:54:00;8.7;;;6;;
12721;SDS011;6425;50.316;8.114;2023-03-12T03:57:00;8.7;;;6;;
12721;SDS011;6425;50.316;8.114;2023-03-12T04:00:00;12;;;7.1;;
12721;SDS011;6425;50.316;8.114;2023-03-12T04:03:00;11.7;;;7.3;;
12721;SDS011;6425;50.316;8.114;2023-03-12T04:06:01;11.7;;;7.3;;
12721;SDS011;6425;50.316;8.114;2023-03-12T04:09:00;11.9;;;6.9;;
12721;SDS011;6425;50.316;8.114;2023-03-12T04:12:00;11.9;;;6.9;;
12721;SDS011;6425;50.316;8.114;2023-03-12T04:15:00;13.7;;;6.6;;
12721;SDS011;6425;50.316;8.114;2023-03-12T04:18:00;11.6;;;6.9;;
12721;SDS011;6425;50.316;8.114;2023-03-12T04:21:00;11.6;;;6.9;;
12721;SDS011;6425;50.316;8.114;2023-03-12T04:24:00;8.7;;;6.8;;
12721;SDS011;6425;50.316;8.114;2023-03-12T04:27:00;8.7;;;6.8;;
12721;SDS011;6425;50.316;8.114;2023-03-12T04:30:00;13.4;;;7.4;;
12721;SDS011;6425;50.316;8.114;2023-03-12T04:33:00;11.7;;;7;;
12721;SDS011;6425;50.316;8.114;2023-03-12T04:36:00;11.7;;;7;;
12721;SDS011;6425;50.316;8.114;2023-03-12T04:39:00;12.7;;;6.4;;
12721;SDS011;6425;50.316;8.114;2023-03-12T04:42:00;12.7;;;6.4;;
12721;SDS011;6425;50.316;8.114;2023-03-12T04:45:00;10.6;;;6.8;;
12721;SDS011;6425;50.316;8.114;2023-03-12T04:48:00;11.9;;;6.1;;
12721;SDS011;6425;50.316;8.114;2023-03-12T04:51:00;11.9;;;6.1;;
12721;SDS011;6425;50.316;8.114;2023-03-12T04:54:00;9.1;;;5.6;;
12721;SDS011;6425;50.316;8.114;2023-03-12T04:57:00;9.1;;;5.6;;
12721;SDS011;6425;50.316;8.114;2023-03-12T05:00:00;9.2;;;5.7;;
12721;SDS011;6425;50.316;8.114;2023-03-12T05:03:00;8.3;;;5.3;;
12721;SDS011;6425;50.316;8.114;2023-03-12T05:06:00;8.3;;;5.3;;
12721;SDS011;6425;50.316;8.114;2023-03-12T05:09:00;7;;;4.9;;
12721;SDS011;6425;50.316;8.114;2023-03-12T05:12:00;7;;;4.9;;
12721;SDS011;6425;50.316;8.114;2023-03-12T05:15:00;13;;;7.6;;
12721;SDS011;6425;50.316;8.114;2023-03-12T05:18:00;16;;;9.2;;
12721;SDS011;6425;50.316;8.114;2023-03-12T05:21:00;16;;;9.2;;
12721;SDS011;6425;50.316;8.114;2023-03-12T05:24:00;12;;;7.3;;
12721;SDS011;6425;50.316;8.114;2023-03-12T05:27:00;12;;;7.3;;
12721;SDS011;6425;50.316;8.114;2023-03-12T05:30:00;8.5;;;6.4;;
12721;SDS011;6425;50.316;8.114;2023-03-12T05:33:00;8.3;;;5.4;;
12721;SDS011;6425;50.316;8.114;2023-03-12T05:36:00;8.3;;;5.4;;
12721;SDS011;6425;50.316;8.114;2023-03-12T05:39:00;7.1;;;4.4;;
12721;SDS011;6425;50.316;8.114;2023-03-12T05:42:00;7.1;;;4.4;;
12721;SDS011;6425;50.316;8.114;2023-03-12T05:45:00;6.3;;;5.8;;
12721;SDS011;6425;50.316;8.114;2023-03-12T05:48:00;7.3;;;5.7;;
12721;SDS011;6425;50.316;8.114;2023-03-12T05:51:00;7.3;;;5.7;;
12721;SDS011;6425;50.316;8.114;2023-03-12T05:54:00;7.9;;;5.6;;
12721;SDS011;6425;50.316;8.114;2023-03-12T05:57:00;7.6;;;4.1;;
12721;SDS011;6425;50.316;8.114;2023-03-12T06:00:00;7.6;;;4.1;;
12721;SDS011;6425;50.316;8.114;2023-03-12T06:03:00;5.9;;;3.7;;
12721;SDS011;6425;50.316;8.114;2023-03-12T06:06:00;5.9;;;3.7;;
12721;SDS011;6425;50.316;8.114;2023-03-12T06:09:00;7.6;;;3.8;;
12721;SDS011;6425;50.316;8.114;2023-03-12T06:12:00;8.6;;;4;;
12721;SDS011;6425;50.316;8.114;2023-03-12T06:15:00;8.6;;;4;;
12721;SDS011;6425;50.316;8.114;2023-03-12T06:18:00;5.8;;;3.5;;
12721;SDS011;6425;50.316;8.114;2023-03-12T06:21:08;5.8;;;3.5;;
12721;SDS011;6425;50.316;8.114;2023-03-12T06:24:00;5.5;;;4.1;;
12721;SDS011;6425;50.316;8.114;2023-03-12T06:27:00;6.4;;;3.6;;
12721;SDS011;6425;50.316;8.114;2023-03-12T06:30:00;6.4;;;3.6;;
12721;SDS011;6425;50.316;8.114;2023-03-12T06:33:00;4.9;;;3.4;;
12721;SDS011;6425;50.316;8.114;2023-03-12T06:36:00;4.9;;;3.4;;
12721;SDS011;6425;50.316;8.114;2023-03-12T06:39:00;4.7;;;3.8;;
12721;SDS011;6425;50.316;8.114;2023-03-12T06:42:00;7;;;4;;
12721;SDS011;6425;50.316;8.114;2023-03-12T06:45:00;7;;;4;;
12721;SDS011;6425;50.316;8.114;2023-03-12T06:48:00;7.4;;;3.7;;
12721;SDS011;6425;50.316;8.114;2023-03-12T06:51:00;7.4;;;3.7;;
12721;SDS011;6425;50.316;8.114;2023-03-12T06:54:00;12.1;;;4.6;;
12721;SDS011;6425;50.316;8.114;2023-03-12T06:57:00;11.6;;;3.7;;
12721;SDS011;6425;50.316;8.114;2023-03-12T07:00:00;11.6;;;3.7;;
12721;SDS011;6425;50.316;8.114;2023-03-12T07:03:00;5;;;2.8;;
12721;SDS011;6425;50.316;8.114;2023-03-12T07:06:00;5;;;2.8;;
12721;SDS011;6425;50.316;8.114;2023-03-12T07:09:00;6.6;;;4.2;;
12721;SDS011;6425;50.316;8.114;2023-03-12T07:12:00;12.1;;;5.1;;
12721;SDS011;6425;50.316;8.114;2023-03-12T07:15:00;12.1;;;5.1;;
12721;SDS011;6425;50.316;8.114;2023-03-12T07:18:00;11.2;;;3.2;;
12721;SDS011;6425;50.316;8.114;2023-03-12T07:21:00;11.2;;;3.2;;
12721;SDS011;6425;50.316;8.114;2023-03-12T07:24:00;6.3;;;4.4;;
12721;SDS011;6425;50.316;8.114;2023-03-12T07:27:00;7;;;4;;
12721;SDS011;6425;50.316;8.114;2023-03-12T07:30:00;7;;;4;;
12721;SDS011;6425;50.316;8.114;2023-03-12T07:33:00;8.9;;;3.9;;
12721;SDS011;6425;50.316;8.114;2023-03-12T07:36:00;8.9;;;3.9;;
12721;SDS011;6425;50.316;8.114;2023-03-12T07:39:00;6.6;;;3.8;;
12721;SDS011;6425;50.316;8.114;2023-03-12T07:42:00;9.7;;;3.9;;
12721;SDS011;6425;50.316;8.114;2023-03-12T07:45:00;9.7;;;3.9;;
12721;SDS011;6425;50.316;8.114;2023-03-12T07:48:00;9.5;;;3.6;;
12721;SDS011;6425;50.316;8.114;2023-03-12T07:51:00;9.5;;;3.6;;
12721;SDS011;6425;50.316;8.114;2023-03-12T07:54:00;10.7;;;4.6;;
12721;SDS011;6425;50.316;8.114;2023-03-12T07:57:00;5;;;3.7;;
12721;SDS011;6425;50.316;8.114;2023-03-12T08:00:00;5;;;3.7;;
12721;SDS011;6425;50.316;8.114;2023-03-12T08:03:00;8.2;;;4.1;;
12721;SDS011;6425;50.316;8.114;2023-03-12T08:06:00;8.2;;;4.1;;
12721;SDS011;6425;50.316;8.114;2023-03-12T08:09:00;6.2;;;4.1;;
12721;SDS011;6425;50.316;8.114;2023-03-12T08:12:00;7.6;;;3;;
12721;SDS011;6425;50.316;8.114;2023-03-12T08:15:00;7.6;;;3;;
12721;SDS011;6425;50.316;8.114;2023-03-12T08:18:00;7.7;;;4.5;;
12721;SDS011;6425;50.316;8.114;2023-03-12T08:21:00;6.2;;;3.9;;
12721;SDS011;6425;50.316;8.114;2023-03-12T08:24:00;4.8;;;3.4;;
12721;SDS011;6425;50.316;8.114;2023-03-12T08:27:00;6;;;4.1;;
12721;SDS011;6425;50.316;8.114;2023-03-12T08:30:00;6;;;4.1;;
12721;SDS011;6425;50.316;8.114;2023-03-12T08:33:00;7.7;;;3.7;;
12721;SDS011;6425;50.316;8.114;2023-03-12T08:36:00;7.2;;;5.1;;
12721;SDS011;6425;50.316;8.114;2023-03-12T08:39:00;7.2;;;5.1;;
12721;SDS011;6425;50.316;8.114;2023-03-12T08:42:00;4.9;;;3.6;;
12721;SDS011;6425;50.316;8.114;2023-03-12T08:45:00;4.9;;;3.6;;
12721;SDS011;6425;50.316;8.114;2023-03-12T08:48:00;3.8;;;3.4;;
12721;SDS011;6425;50.316;8.114;2023-03-12T08:51:00;4.3;;;3.1;;
12721;SDS011;6425;50.316;8.114;2023-03-12T08:54:00;4.3;;;3.1;;
12721;SDS011;6425;50.316;8.114;2023-03-12T08:57:00;4.8;;;3.6;;
12721;SDS011;6425;50.316;8.114;2023-03-12T09:00:00;4.8;;;3.6;;
12721;SDS011;6425;50.316;8.114;2023-03-12T09:03:00;4.8;;;3.4;;
12721;SDS011;6425;50.316;8.114;2023-03-12T09:06:01;4.8;;;3.4;;
12721;SDS011;6425;50.316;8.114;2023-03-12T09:09:00;4.8;;;3.4;;
12721;SDS011;6425;50.316;8.114;2023-03-12T09:12:00;4.8;;;3.4;;
12721;SDS011;6425;50.316;8.114;2023-03-12T09:15:00;4.8;;;3.4;;
12721;SDS011;6425;50.316;8.114;2023-03-12T09:18:00;4.8;;;3.4;;
12721;SDS011;6425;50.316;8.114;2023-03-12T09:21:00;1499.9;;;721.3;;
12721;SDS011;6425;50.316;8.114;2023-03-12T09:24:00;361.5;;;961.8;;
12721;SDS011;6425;50.316;8.114;2023-03-12T09:27:00;361.5;;;999.9;;
12721;SDS011;6425;50.316;8.114;2023-03-12T09:30:00;361.5;;;999.9;;
12721;SDS011;6425;50.316;8.114;2023-03-12T09:33:00;361.5;;;963.6;;
12721;SDS011;6425;50.316;8.114;2023-03-12T09:36:00;361.5;;;999.9;;
12721;SDS011;6425;50.316;8.114;2023-03-12T09:39:00;361.5;;;999.9;;
12721;SDS011;6425;50.316;8.114;2023-03-12T09:42:00;361.5;;;999.9;;
12721;SDS011;6425;50.316;8.114;2023-03-12T09:45:00;361.5;;;999.9;;
12721;SDS011;6425;50.316;8.114;2023-03-12T09:48:00;17.6;;;16.3;;
12721;SDS011;6425;50.316;8.114;2023-03-12T09:51:00;17.6;;;16.3;;
12721;SDS011;6425;50.316;8.114;2023-03-12T09:54:01;5.5;;;5;;
12721;SDS011;6425;50.316;8.114;2023-03-12T09:57:01;10.3;;;7.5;;
12721;SDS011;6425;50.316;8.114;2023-03-12T10:00:00;10.3;;;7.5;;
12721;SDS011;6425;50.316;8.114;2023-03-12T10:03:09;7.6;;;5.2;;
12721;SDS011;6425;50.316;8.114;2023-03-12T10:06:03;7.7;;;6.1;;
12721;SDS011;6425;50.316;8.114;2023-03-12T10:09:02;7.7;;;6.1;;
12721;SDS011;6425;50.316;8.114;2023-03-12T10:12:01;10.4;;;6.2;;
12721;SDS011;6425;50.316;8.114;2023-03-12T10:15:02;10.4;;;6.2;;
12721;SDS011;6425;50.316;8.114;2023-03-12T10:18:03;14.1;;;8.2;;
12721;SDS011;6425;50.316;8.114;2023-03-12T10:21:03;13.9;;;8.9;;
12721;SDS011;6425;50.316;8.114;2023-03-12T10:24:04;13.9;;;8.9;;
12721;SDS011;6425;50.316;8.114;2023-03-12T10:27:00;15.8;;;8.2;;
12721;SDS011;6425;50.316;8.114;2023-03-12T10:30:00;15.8;;;8.2;;
12721;SDS011;6425;50.316;8.114;2023-03-12T10:33:00;11.1;;;7.6;;
12721;SDS011;6425;50.316;8.114;2023-03-12T10:36:00;13.4;;;9.6;;
12721;SDS011;6425;50.316;8.114;2023-03-12T10:39:00;13.4;;;9.6;;
12721;SDS011;6425;50.316;8.114;2023-03-12T10:42:00;14.8;;;9.6;;
12721;SDS011;6425;50.316;8.114;2023-03-12T10:45:05;14.8;;;9.6;;
12721;SDS011;6425;50.316;8.114;2023-03-12T10:48:01;14;;;9.1;;
12721;SDS011;6425;50.316;8.114;2023-03-12T10:51:01;11.4;;;8.9;;
12721;SDS011;6425;50.316;8.114;2023-03-12T10:54:00;11.4;;;8.9;;
12721;SDS011;6425;50.316;8.114;2023-03-12T10:57:00;9.3;;;6.9;;
12721;SDS011;6425;50.316;8.114;2023-03-12T11:00:03;9.3;;;6.9;;
12721;SDS011;6425;50.316;8.114;2023-03-12T11:03:00;13;;;9;;
12721;SDS011;6425;50.316;8.114;2023-03-12T11:06:00;9.4;;;6.7;;
12721;SDS011;6425;50.316;8.114;2023-03-12T11:09:02;9.4;;;6.7;;
12721;SDS011;6425;50.316;8.114;2023-03-12T11:12:00;10;;;5.8;;
12721;SDS011;6425;50.316;8.114;2023-03-12T11:15:00;10;;;5.8;;
12721;SDS011;6425;50.316;8.114;2023-03-12T11:18:16;8.6;;;5.3;;
12721;SDS011;6425;50.316;8.114;2023-03-12T11:21:16;8.6;;;5.5;;
12721;SDS011;6425;50.316;8.114;2023-03-12T11:24:05;8.6;;;5.5;;
12721;SDS011;6425;50.316;8.114;2023-03-12T11:27:01;8.7;;;5;;
12721;SDS011;6425;50.316;8.114;2023-03-12T11:30:00;8.7;;;5;;
12721;SDS011;6425;50.316;8.114;2023-03-12T11:33:00;7.5;;;4.6;;
12721;SDS011;6425;50.316;8.114;2023-03-12T11:36:04;3.6;;;2.9;;
12721;SDS011;6425;50.316;8.114;2023-03-12T11:39:01;3.6;;;2.9;;
12721;SDS011;6425;50.316;8.114;2023-03-12T11:42:04;14.7;;;7.2;;
12721;SDS011;6425;50.316;8.114;2023-03-12T11:45:01;14.7;;;7.2;;
12721;SDS011;6425;50.316;8.114;2023-03-12T11:48:03;2.3;;;1.7;;
12721;SDS011;6425;50.316;8.114;2023-03-12T11:51:02;3;;;1.8;;
12721;SDS011;6425;50.316;8.114;2023-03-12T11:54:04;3;;;1.8;;
12721;SDS011;6425;50.316;8.114;2023-03-12T11:57:01;2.7;;;1.5;;
12721;SDS011;6425;50.316;8.114;2023-03-12T12:00:02;2.7;;;1.5;;
12721;SDS011;6425;50.316;8.114;2023-03-12T12:03:05;2.2;;;1.7;;
12721;SDS011;6425;50.316;8.114;2023-03-12T12:06:00;2.3;;;1.9;;
12721;SDS011;6425;50.316;8.114;2023-03-12T12:09:04;2.3;;;1.9;;
12721;SDS011;6425;50.316;8.114;2023-03-12T12:12:03;4;;;2.1;;
12721;SDS011;6425;50.316;8.114;2023-03-12T12:15:03;4;;;2.1;;
12721;SDS011;6425;50.316;8.114;2023-03-12T12:18:01;1.8;;;1.3;;
12721;SDS011;6425;50.316;8.114;2023-03-12T12:21:01;2.6;;;1.9;;
12721;SDS011;6425;50.316;8.114;2023-03-12T12:24:01;2.6;;;1.9;;
12721;SDS011;6425;50.316;8.114;2023-03-12T12:27:00;2.9;;;1.4;;
12721;SDS011;6425;50.316;8.114;2023-03-12T12:30:03;2.9;;;1.4;;
12721;SDS011;6425;50.316;8.114;2023-03-12T12:33:04;4.7;;;1.9;;
12721;SDS011;6425;50.316;8.114;2023-03-12T12:36:00;3.6;;;1.6;;
12721;SDS011;6425;50.316;8.114;2023-03-12T12:39:00;3.6;;;1.6;;
12721;SDS011;6425;50.316;8.114;2023-03-12T12:42:01;1.8;;;1.4;;
12721;SDS011;6425;50.316;8.114;2023-03-12T12:45:00;1.8;;;1.4;;
12721;SDS011;6425;50.316;8.114;2023-03-12T12:48:00;2.8;;;1.9;;
12721;SDS011;6425;50.316;8.114;2023-03-12T12:51:00;3.6;;;1.2;;
12721;SDS011;6425;50.316;8.114;2023-03-12T12:54:00;3.6;;;1.2;;
12721;SDS011;6425;50.316;8.114;2023-03-12T12:57:01;2.4;;;1.5;;
12721;SDS011;6425;50.316;8.114;2023-03-12T13:00:02;2.4;;;1.5;;
12721;SDS011;6425;50.316;8.114;2023-03-12T13:03:00;2.1;;;1.5;;
12721;SDS011;6425;50.316;8.114;2023-03-12T13:06:00;5;;;1.8;;
12721;SDS011;6425;50.316;8.114;2023-03-12T13:09:01;5;;;1.8;;
12721;SDS011;6425;50.316;8.114;2023-03-12T13:12:05;2.9;;;1.3;;
12721;SDS011;6425;50.316;8.114;2023-03-12T13:15:00;3;;;1.4;;
12721;SDS011;6425;50.316;8.114;2023-03-12T13:18:02;3.4;;;1.8;;
12721;SDS011;6425;50.316;8.114;2023-03-12T13:21:05;4.1;;;1.5;;
12721;SDS011;6425;50.316;8.114;2023-03-12T13:24:04;4.1;;;1.5;;
12721;SDS011;6425;50.316;8.114;2023-03-12T13:27:01;3.4;;;1.3;;
12721;SDS011;6425;50.316;8.114;2023-03-12T13:30:13;2.9;;;1.2;;
12721;SDS011;6425;50.316;8.114;2023-03-12T13:33:04;2.9;;;1.2;;
12721;SDS011;6425;50.316;8.114;2023-03-12T13:36:04;5.5;;;2;;
12721;SDS011;6425;50.316;8.114;2023-03-12T13:39:01;5.5;;;2;;
12721;SDS011;6425;50.316;8.114;2023-03-12T13:42:00;3.8;;;1.2;;
12721;SDS011;6425;50.316;8.114;2023-03-12T13:45:23;2.8;;;1.5;;
12721;SDS011;6425;50.316;8.114;2023-03-12T13:48:00;2.8;;;1.5;;
12721;SDS011;6425;50.316;8.114;2023-03-12T13:51:00;6.4;;;2.3;;
12721;SDS011;6425;50.316;8.114;2023-03-12T13:54:00;6.4;;;2.3;;
12721;SDS011;6425;50.316;8.114;2023-03-12T14:03:00;2.2;;;1.1;;
12721;SDS011;6425;50.316;8.114;2023-03-12T14:06:05;5;;;1.3;;
12721;SDS011;6425;50.316;8.114;2023-03-12T14:09:04;5;;;1.3;;
12721;SDS011;6425;50.316;8.114;2023-03-12T14:12:00;2;;;0.9;;
12721;SDS011;6425;50.316;8.114;2023-03-12T14:15:03;3.8;;;1.4;;
12721;SDS011;6425;50.316;8.114;2023-03-12T14:18:00;3.8;;;1.4;;
12721;SDS011;6425;50.316;8.114;2023-03-12T14:21:00;3.8;;;1.4;;
12721;SDS011;6425;50.316;8.114;2023-03-12T14:24:00;3.8;;;1.4;;
12721;SDS011;6425;50.316;8.114;2023-03-12T14:27:00;5.3;;;1.7;;
12721;SDS011;6425;50.316;8.114;2023-03-12T14:30:03;5.4;;;1.8;;
12721;SDS011;6425;50.316;8.114;2023-03-12T14:33:00;5.4;;;1.8;;
12721;SDS011;6425;50.316;8.114;2023-03-12T14:36:01;4.4;;;1.3;;
12721;SDS011;6425;50.316;8.114;2023-03-12T14:39:09;4.4;;;1.3;;
12721;SDS011;6425;50.316;8.114;2023-03-12T14:42:00;3;;;1.7;;
12721;SDS011;6425;50.316;8.114;2023-03-12T14:45:00;5.9;;;1.8;;
12721;SDS011;6425;50.316;8.114;2023-03-12T14:48:00;5.9;;;1.8;;
12721;SDS011;6425;50.316;8.114;2023-03-12T14:51:00;1.8;;;1.1;;
12721;SDS011;6425;50.316;8.114;2023-03-12T14:54:00;1.8;;;1.1;;
12721;SDS011;6425;50.316;8.114;2023-03-12T14:57:00;8.7;;;3.4;;
12721;SDS011;6425;50.316;8.114;2023-03-12T15:00:00;6.4;;;2.1;;
12721;SDS011;6425;50.316;8.114;2023-03-12T15:03:01;6.4;;;2.1;;
12721;SDS011;6425;50.316;8.114;2023-03-12T15:06:00;7.4;;;1.7;;
12721;SDS011;6425;50.316;8.114;2023-03-12T15:09:00;7.4;;;1.7;;
12721;SDS011;6425;50.316;8.114;2023-03-12T15:12:00;4.2;;;1.4;;
12721;SDS011;6425;50.316;8.114;2023-03-12T15:15:00;9.4;;;1.9;;
12721;SDS011;6425;50.316;8.114;2023-03-12T15:18:00;9.4;;;1.9;;
12721;SDS011;6425;50.316;8.114;2023-03-12T15:21:00;6.6;;;1.2;;
12721;SDS011;6425;50.316;8.114;2023-03-12T15:24:00;6.6;;;1.2;;
12721;SDS011;6425;50.316;8.114;2023-03-12T15:27:17;4.4;;;1.5;;
12721;SDS011;6425;50.316;8.114;2023-03-12T15:30:00;8.8;;;2.1;;
12721;SDS011;6425;50.316;8.114;2023-03-12T15:33:04;8.8;;;2.1;;
12721;SDS011;6425;50.316;8.114;2023-03-12T15:36:01;12;;;3.5;;
12721;SDS011;6425;50.316;8.114;2023-03-12T15:39:00;6.2;;;2.5;;
12721;SDS011;6425;50.316;8.114;2023-03-12T15:42:00;6.2;;;2.5;;
12721;SDS011;6425;50.316;8.114;2023-03-12T15:45:00;6.2;;;2.3;;
12721;SDS011;6425;50.316;8.114;2023-03-12T15:48:00;6.2;;;2.3;;
12721;SDS011;6425;50.316;8.114;2023-03-12T15:51:00;5.1;;;1.7;;
12721;SDS011;6425;50.316;8.114;2023-03-12T15:54:01;7.1;;;2;;
12721;SDS011;6425;50.316;8.114;2023-03-12T15:57:31;7.1;;;2;;
12721;SDS011;6425;50.316;8.114;2023-03-12T16:00:13;9.7;;;2.8;;
12721;SDS011;6425;50.316;8.114;2023-03-12T16:03:00;9.7;;;2.8;;
12721;SDS011;6425;50.316;8.114;2023-03-12T16:06:00;7.6;;;2.6;;
12721;SDS011;6425;50.316;8.114;2023-03-12T16:09:00;7.5;;;2.3;;
12721;SDS011;6425;50.316;8.114;2023-03-12T16:12:00;7.5;;;2.3;;
12721;SDS011;6425;50.316;8.114;2023-03-12T16:15:00;10.5;;;2.4;;
12721;SDS011;6425;50.316;8.114;2023-03-12T16:18:00;10.5;;;2.4;;
12721;SDS011;6425;50.316;8.114;2023-03-12T16:21:00;8.3;;;2.9;;
12721;SDS011;6425;50.316;8.114;2023-03-12T16:24:00;9.7;;;2.5;;
12721;SDS011;6425;50.316;8.114;2023-03-12T16:27:00;9.7;;;2.5;;
12721;SDS011;6425;50.316;8.114;2023-03-12T16:30:00;10.9;;;2;;
12721;SDS011;6425;50.316;8.114;2023-03-12T16:33:00;10.9;;;2;;
12721;SDS011;6425;50.316;8.114;2023-03-12T16:36:00;10.2;;;2.6;;
12721;SDS011;6425;50.316;8.114;2023-03-12T16:39:00;10.8;;;3.3;;
12721;SDS011;6425;50.316;8.114;2023-03-12T16:42:00;10.8;;;3.3;;
12721;SDS011;6425;50.316;8.114;2023-03-12T16:45:00;5.5;;;2.3;;
12721;SDS011;6425;50.316;8.114;2023-03-12T16:48:00;5.5;;;2.3;;
12721;SDS011;6425;50.316;8.114;2023-03-12T16:51:00;10.6;;;3.6;;
12721;SDS011;6425;50.316;8.114;2023-03-12T16:54:00;9.9;;;2.8;;
12721;SDS011;6425;50.316;8.114;2023-03-12T16:57:00;9.9;;;2.8;;
12721;SDS011;6425;50.316;8.114;2023-03-12T17:00:01;6.4;;;2.3;;
12721;SDS011;6425;50.316;8.114;2023-03-12T17:03:00;6.4;;;2.3;;
12721;SDS011;6425;50.316;8.114;2023-03-12T17:06:00;16.2;;;4.4;;
12721;SDS011;6425;50.316;8.114;2023-03-12T17:09:00;9.4;;;2.6;;
12721;SDS011;6425;50.316;8.114;2023-03-12T17:12:00;9.4;;;2.6;;
12721;SDS011;6425;50.316;8.114;2023-03-12T17:15:00;13.6;;;3.4;;
12721;SDS011;6425;50.316;8.114;2023-03-12T17:18:00;13.6;;;3.4;;
12721;SDS011;6425;50.316;8.114;2023-03-12T17:21:00;12.1;;;3.4;;
12721;SDS011;6425;50.316;8.114;2023-03-12T17:24:00;13;;;2.9;;
12721;SDS011;6425;50.316;8.114;2023-03-12T17:27:00;13;;;2.9;;
12721;SDS011;6425;50.316;8.114;2023-03-12T17:30:00;15.8;;;3.5;;
12721;SDS011;6425;50.316;8.114;2023-03-12T17:33:01;15.8;;;3.5;;
12721;SDS011;6425;50.316;8.114;2023-03-12T17:36:00;10.5;;;3;;
12721;SDS011;6425;50.316;8.114;2023-03-12T17:39:00;10.1;;;2.5;;
12721;SDS011;6425;50.316;8.114;2023-03-12T17:42:00;10.1;;;2.5;;
12721;SDS011;6425;50.316;8.114;2023-03-12T17:45:00;13.9;;;3.5;;
12721;SDS011;6425;50.316;8.114;2023-03-12T17:48:00;13.9;;;3.5;;
12721;SDS011;6425;50.316;8.114;2023-03-12T17:51:03;12.1;;;3.5;;
12721;SDS011;6425;50.316;8.114;2023-03-12T17:54:00;10.2;;;2.6;;
12721;SDS011;6425;50.316;8.114;2023-03-12T17:57:00;10.2;;;2.6;;
12721;SDS011;6425;50.316;8.114;2023-03-12T18:00:00;10;;;2.5;;
12721;SDS011;6425;50.316;8.114;2023-03-12T18:03:00;10;;;2.5;;
12721;SDS011;6425;50.316;8.114;2023-03-12T18:06:00;15.5;;;4.2;;
12721;SDS011;6425;50.316;8.114;2023-03-12T18:09:00;15.9;;;4;;
12721;SDS011;6425;50.316;8.114;2023-03-12T18:12:00;15.9;;;4;;
12721;SDS011;6425;50.316;8.114;2023-03-12T18:15:00;13.6;;;2.9;;
12721;SDS011;6425;50.316;8.114;2023-03-12T18:18:00;13.6;;;2.9;;
12721;SDS011;6425;50.316;8.114;2023-03-12T18:21:00;16.8;;;3.7;;
12721;SDS011;6425;50.316;8.114;2023-03-12T18:24:00;15.1;;;3.4;;
12721;SDS011;6425;50.316;8.114;2023-03-12T18:27:00;15.1;;;3.4;;
12721;SDS011;6425;50.316;8.114;2023-03-12T18:30:00;16.1;;;3.8;;
12721;SDS011;6425;50.316;8.114;2023-03-12T18:33:00;16.1;;;3.8;;
12721;SDS011;6425;50.316;8.114;2023-03-12T18:36:00;21.6;;;8.6;;
12721;SDS011;6425;50.316;8.114;2023-03-12T18:39:00;43;;;19.6;;
12721;SDS011;6425;50.316;8.114;2023-03-12T18:42:00;43;;;19.6;;
12721;SDS011;6425;50.316;8.114;2023-03-12T18:45:00;14.6;;;4.8;;
12721;SDS011;6425;50.316;8.114;2023-03-12T18:48:00;14.6;;;4.8;;
12721;SDS011;6425;50.316;8.114;2023-03-12T18:51:00;13.2;;;3.4;;
12721;SDS011;6425;50.316;8.114;2023-03-12T18:54:00;13.9;;;3.6;;
12721;SDS011;6425;50.316;8.114;2023-03-12T18:57:00;13.9;;;3.6;;
12721;SDS011;6425;50.316;8.114;2023-03-12T19:00:00;12.8;;;3.5;;